createdAt,value
2023-05-09T00:00:17.724Z,100217.28
2023-05-09T00:01:19.655Z,100220.84
2023-05-09T00:02:21.194Z,100221.88
2023-05-09T00:03:22.836Z,100216.97
2023-05-09T00:04:25.564Z,100215.22
2023-05-09T00:05:27.128Z,100212.84
2023-05-09T00:06:28.891Z,100200.69
2023-05-09T00:07:31.278Z,100214.59
2023-05-09T00:08:33.598Z,100207.09
2023-05-09T00:09:35.124Z,100205.31
2023-05-09T00:10:36.737Z,100207.19
2023-05-09T00:11:38.725Z,100202.03
2023-05-09T00:12:40.923Z,100202.94
2023-05-09T00:13:42.570Z,100202.19
2023-05-09T00:14:44.086Z,100201.59
2023-05-09T00:15:45.693Z,100201.94
2023-05-09T00:16:47.367Z,100200.25
2023-05-09T00:17:48.923Z,100202.34
2023-05-09T00:18:50.494Z,100204.03
2023-05-09T00:19:52.507Z,100199.41
2023-05-09T00:20:54.140Z,100197.34
2023-05-09T00:21:55.672Z,100193.06
2023-05-09T00:22:57.177Z,100197.53
2023-05-09T00:23:58.654Z,100194.00
2023-05-09T00:25:00.178Z,100187.50
2023-05-09T00:26:01.823Z,100190.09
2023-05-09T00:27:03.415Z,100190.84
2023-05-09T00:28:04.943Z,100188.00
2023-05-09T00:29:06.524Z,100188.69
2023-05-09T00:30:08.650Z,100193.91
2023-05-09T00:31:10.394Z,100188.25
2023-05-09T00:32:12.136Z,100192.47
2023-05-09T00:33:13.757Z,100189.84
2023-05-09T00:34:15.300Z,100185.13
2023-05-09T00:35:16.982Z,100176.97
2023-05-09T00:36:18.603Z,100182.94
2023-05-09T00:37:20.721Z,100183.03
2023-05-09T00:38:23.345Z,100182.09
2023-05-09T00:39:25.066Z,100188.19
2023-05-09T00:40:26.609Z,100182.09
2023-05-09T00:41:28.151Z,100183.25
2023-05-09T00:42:29.649Z,100184.13
2023-05-09T00:43:31.187Z,100177.22
2023-05-09T00:44:32.713Z,100174.72
2023-05-09T00:45:34.482Z,100178.97
2023-05-09T00:46:36.149Z,100177.50
2023-05-09T00:47:38.160Z,100174.63
2023-05-09T00:48:40.153Z,100180.94
2023-05-09T00:49:42.009Z,100168.81
2023-05-09T00:50:43.735Z,100166.19
2023-05-09T00:51:45.972Z,100180.94
2023-05-09T00:52:47.529Z,100168.56
2023-05-09T00:53:49.392Z,100165.28
2023-05-09T00:54:52.109Z,100173.56
2023-05-09T00:55:55.414Z,100180.63
2023-05-09T00:56:57.036Z,100172.78
2023-05-09T00:57:58.676Z,100177.03
2023-05-09T00:59:00.264Z,100169.31
2023-05-09T01:00:01.977Z,100179.09
2023-05-09T01:01:03.643Z,100171.56
2023-05-09T01:02:05.180Z,100174.81
2023-05-09T01:03:07.013Z,100172.66
2023-05-09T01:04:08.670Z,100171.75
2023-05-09T01:05:11.798Z,100163.91
2023-05-09T01:06:22.529Z,100166.91
2023-05-09T01:07:50.043Z,100169.94
2023-05-09T01:09:19.276Z,100162.63
2023-05-09T01:10:31.585Z,100163.28
2023-05-09T01:11:51.380Z,100165.81
2023-05-09T01:13:15.168Z,100162.63
2023-05-09T01:14:22.513Z,100166.22
2023-05-09T01:15:48.746Z,100155.84
2023-05-09T01:17:02.442Z,100160.25
2023-05-09T01:18:17.357Z,100157.47
2023-05-09T01:19:56.861Z,100157.47
2023-05-09T01:21:05.313Z,100154.84
2023-05-09T01:22:09.497Z,100161.16
2023-05-09T01:23:35.939Z,100155.25
2023-05-09T01:24:52.502Z,100164.16
2023-05-09T01:26:02.510Z,100156.34
2023-05-09T01:27:21.326Z,100162.31
2023-05-09T01:28:31.700Z,100159.72
2023-05-09T01:29:46.992Z,100156.22
2023-05-09T01:30:52.144Z,100157.38
2023-05-09T01:31:56.437Z,100156.56
2023-05-09T01:33:01.308Z,100161.78
2023-05-09T01:34:05.686Z,100155.63
2023-05-09T01:35:09.636Z,100151.25
2023-05-09T01:36:17.230Z,100151.94
2023-05-09T01:37:22.167Z,100145.91
2023-05-09T01:38:25.698Z,100150.31
2023-05-09T01:39:28.213Z,100148.50
2023-05-09T01:40:32.923Z,100151.63
2023-05-09T01:41:37.392Z,100146.25
2023-05-09T01:42:44.621Z,100147.88
2023-05-09T01:43:49.526Z,100157.41
2023-05-09T01:44:52.583Z,100148.88
2023-05-09T01:45:57.163Z,100154.38
2023-05-09T01:47:00.382Z,100154.47
2023-05-09T01:48:04.114Z,100155.19
2023-05-09T01:49:07.752Z,100150.63
2023-05-09T01:50:11.967Z,100150.22
2023-05-09T01:51:14.985Z,100154.63
2023-05-09T01:52:18.500Z,100149.31
2023-05-09T01:53:22.773Z,100160.38
2023-05-09T01:54:25.731Z,100156.91
2023-05-09T01:55:31.759Z,100154.97
2023-05-09T01:56:35.065Z,100143.47
2023-05-09T01:57:38.876Z,100149.69
2023-05-09T01:58:42.093Z,100151.38
2023-05-09T01:59:45.091Z,100151.97
2023-05-09T02:00:48.522Z,100145.91
2023-05-09T02:01:50.258Z,100142.38
2023-05-09T02:02:53.275Z,100146.66
2023-05-09T02:03:57.214Z,100152.19
2023-05-09T02:04:59.068Z,100147.66
2023-05-09T02:06:04.274Z,100147.59
2023-05-09T02:07:06.732Z,100141.38
2023-05-09T02:08:09.439Z,100144.56
2023-05-09T02:09:12.117Z,100149.81
2023-05-09T02:10:15.888Z,100151.34
2023-05-09T02:11:17.678Z,100144.31
2023-05-09T02:12:20.085Z,100137.97
2023-05-09T02:13:21.782Z,100139.72
2023-05-09T02:14:23.972Z,100142.28
2023-05-09T02:15:26.320Z,100143.19
2023-05-09T02:16:28.428Z,100141.81
2023-05-09T02:17:30.024Z,100141.13
2023-05-09T02:18:31.565Z,100135.47
2023-05-09T02:19:35.124Z,100134.84
2023-05-09T02:20:36.760Z,100132.84
2023-05-09T02:21:38.332Z,100137.84
2023-05-09T02:22:41.020Z,100133.69
2023-05-09T02:23:42.622Z,100137.16
2023-05-09T02:24:44.371Z,100134.78
2023-05-09T02:25:46.391Z,100141.69
2023-05-09T02:26:48.053Z,100134.19
2023-05-09T02:27:52.097Z,100137.63
2023-05-09T02:28:54.397Z,100141.31
2023-05-09T02:29:56.670Z,100142.03
2023-05-09T02:31:02.006Z,100136.63
2023-05-09T02:32:05.308Z,100137.56
2023-05-09T02:33:08.550Z,100136.63
2023-05-09T02:34:11.427Z,100140.84
2023-05-09T02:35:16.215Z,100146.84
2023-05-09T02:36:18.782Z,100142.19
2023-05-09T02:37:21.235Z,100137.75
2023-05-09T02:38:24.039Z,100135.06
2023-05-09T02:39:26.432Z,100142.69
2023-05-09T02:40:29.874Z,100137.66
2023-05-09T02:41:31.425Z,100130.75
2023-05-09T02:42:32.962Z,100130.81
2023-05-09T02:43:35.172Z,100130.00
2023-05-09T02:44:37.222Z,100136.91
2023-05-09T02:45:38.747Z,100130.75
2023-05-09T02:46:40.291Z,100132.44
2023-05-09T02:47:41.845Z,100129.69
2023-05-09T02:48:43.405Z,100132.13
2023-05-09T02:49:45.158Z,100130.44
2023-05-09T02:50:47.109Z,100134.84
2023-05-09T02:51:48.708Z,100120.84
2023-05-09T02:52:50.278Z,100138.28
2023-05-09T02:53:51.989Z,100133.31
2023-05-09T02:54:53.583Z,100135.22
2023-05-09T02:55:55.380Z,100136.22
2023-05-09T02:56:56.910Z,100136.28
2023-05-09T02:58:12.102Z,100132.75
2023-05-09T02:59:15.937Z,100134.59
2023-05-09T03:00:18.056Z,100133.69
2023-05-09T03:01:19.714Z,100133.59
2023-05-09T03:02:21.318Z,100138.75
2023-05-09T03:03:23.289Z,100137.84
2023-05-09T03:04:25.515Z,100142.97
2023-05-09T03:05:27.453Z,100132.50
2023-05-09T03:06:29.073Z,100133.31
2023-05-09T03:07:30.712Z,100132.31
2023-05-09T03:08:32.904Z,100134.84
2023-05-09T03:09:34.584Z,100133.06
2023-05-09T03:10:36.135Z,100135.00
2023-05-09T03:11:37.707Z,100134.84
2023-05-09T03:12:39.981Z,100142.44
2023-05-09T03:13:41.601Z,100140.66
2023-05-09T03:14:43.137Z,100138.91
2023-05-09T03:15:44.686Z,100135.47
2023-05-09T03:16:47.431Z,100141.69
2023-05-09T03:17:56.929Z,100140.88
2023-05-09T03:18:58.551Z,100141.66
2023-05-09T03:20:02.336Z,100139.59
2023-05-09T03:21:05.755Z,100139.00
2023-05-09T03:22:09.110Z,100139.59
2023-05-09T03:23:17.457Z,100144.34
2023-05-09T03:24:19.041Z,100128.50
2023-05-09T03:25:20.592Z,100132.34
2023-05-09T03:26:22.146Z,100134.78
2023-05-09T03:27:23.857Z,100126.41
2023-05-09T03:28:25.826Z,100132.56
2023-05-09T03:29:27.812Z,100134.56
2023-05-09T03:30:29.343Z,100128.16
2023-05-09T03:31:31.980Z,100119.50
2023-05-09T03:32:33.715Z,100128.16
2023-05-09T03:33:35.398Z,100125.66
2023-05-09T03:34:37.126Z,100123.13
2023-05-09T03:35:39.539Z,100124.81
2023-05-09T03:36:42.428Z,100129.88
2023-05-09T03:37:45.675Z,100127.34
2023-05-09T03:38:47.259Z,100128.97
2023-05-09T03:39:49.117Z,100129.03
2023-05-09T03:40:51.513Z,100129.72
2023-05-09T03:41:53.173Z,100130.47
2023-05-09T03:42:54.708Z,100133.09
2023-05-09T03:43:56.238Z,100142.19
2023-05-09T03:44:58.055Z,100137.84
2023-05-09T03:45:59.653Z,100137.09
2023-05-09T03:47:01.848Z,100137.16
2023-05-09T03:48:09.653Z,100137.97
2023-05-09T03:49:14.911Z,100139.53
2023-05-09T03:50:16.898Z,100142.91
2023-05-09T03:51:19.314Z,100140.16
2023-05-09T03:52:20.827Z,100134.69
2023-05-09T03:53:23.348Z,100136.53
2023-05-09T03:54:26.743Z,100138.97
2023-05-09T03:55:28.410Z,100136.38
2023-05-09T03:56:30.109Z,100138.03
2023-05-09T03:57:32.972Z,100134.75
2023-05-09T03:58:34.560Z,100132.13
2023-05-09T03:59:36.110Z,100138.97
2023-05-09T04:00:38.932Z,100138.16
2023-05-09T04:01:45.701Z,100135.44
2023-05-09T04:02:50.787Z,100137.06
2023-05-09T04:04:04.388Z,100135.28
2023-05-09T04:05:09.056Z,100137.75
2023-05-09T04:06:12.376Z,100124.75
2023-05-09T04:07:17.711Z,100136.72
2023-05-09T04:08:20.973Z,100139.19
2023-05-09T04:09:22.666Z,100139.88
2023-05-09T04:10:24.247Z,100135.28
2023-05-09T04:11:25.972Z,100138.53
2023-05-09T04:12:28.132Z,100142.81
2023-05-09T04:13:30.029Z,100138.91
2023-05-09T04:14:33.289Z,100136.91
2023-05-09T04:15:34.886Z,100137.50
2023-05-09T04:16:36.895Z,100136.06
2023-05-09T04:17:38.476Z,100136.38
2023-05-09T04:18:40.088Z,100127.34
2023-05-09T04:19:41.674Z,100130.66
2023-05-09T04:20:43.469Z,100131.16
2023-05-09T04:21:45.638Z,100126.41
2023-05-09T04:22:47.536Z,100131.19
2023-05-09T04:23:51.076Z,100140.22
2023-05-09T04:24:56.923Z,100133.53
2023-05-09T04:25:58.532Z,100137.47
2023-05-09T04:27:00.254Z,100130.19
2023-05-09T04:28:01.915Z,100134.28
2023-05-09T04:29:04.078Z,100129.91
2023-05-09T04:30:06.630Z,100132.16
2023-05-09T04:31:08.577Z,100129.38
2023-05-09T04:32:10.932Z,100124.91
2023-05-09T04:33:13.192Z,100117.97
2023-05-09T04:34:14.804Z,100128.00
2023-05-09T04:35:20.353Z,100124.16
2023-05-09T04:36:23.211Z,100130.06
2023-05-09T04:37:24.946Z,100130.81
2023-05-09T04:38:27.426Z,100128.09
2023-05-09T04:39:29.173Z,100126.88
2023-05-09T04:40:38.441Z,100132.50
2023-05-09T04:41:40.152Z,100123.81
2023-05-09T04:42:41.672Z,100128.75
2023-05-09T04:43:43.371Z,100122.41
2023-05-09T04:44:44.980Z,100127.44
2023-05-09T04:45:46.836Z,100120.44
2023-05-09T04:46:49.583Z,100126.78
2023-05-09T04:47:51.192Z,100131.56
2023-05-09T04:48:52.766Z,100130.03
2023-05-09T04:49:55.096Z,100129.66
2023-05-09T04:50:56.656Z,100128.25
2023-05-09T04:51:58.188Z,100120.66
2023-05-09T04:53:00.657Z,100122.78
2023-05-09T04:54:02.339Z,100123.28
2023-05-09T04:55:07.905Z,100130.53
2023-05-09T04:56:13.231Z,100127.53
2023-05-09T04:57:18.479Z,100130.47
2023-05-09T04:58:24.972Z,100135.13
2023-05-09T04:59:26.634Z,100132.25
2023-05-09T05:00:28.160Z,100132.47
2023-05-09T05:01:29.867Z,100130.50
2023-05-09T05:02:31.988Z,100126.69
2023-05-09T05:03:33.683Z,100139.31
2023-05-09T05:04:35.719Z,100127.16
2023-05-09T05:05:38.143Z,100127.97
2023-05-09T05:06:40.282Z,100129.03
2023-05-09T05:07:42.113Z,100127.69
2023-05-09T05:08:45.368Z,100131.47
2023-05-09T05:09:46.928Z,100124.81
2023-05-09T05:10:48.527Z,100124.09
2023-05-09T05:12:00.819Z,100129.22
2023-05-09T05:13:05.870Z,100134.13
2023-05-09T05:14:09.213Z,100125.91
2023-05-09T05:15:11.782Z,100134.50
2023-05-09T05:16:14.562Z,100126.44
2023-05-09T05:17:16.554Z,100122.38
2023-05-09T05:18:18.391Z,100122.25
2023-05-09T05:19:19.941Z,100128.47
2023-05-09T05:20:21.489Z,100120.41
2023-05-09T05:21:23.868Z,100118.28
2023-05-09T05:22:25.391Z,100118.06
2023-05-09T05:23:26.997Z,100114.03
2023-05-09T05:24:29.697Z,100125.03
2023-05-09T05:25:31.557Z,100117.63
2023-05-09T05:26:34.965Z,100118.69
2023-05-09T05:27:36.656Z,100114.84
2023-05-09T05:28:38.561Z,100118.19
2023-05-09T05:29:40.939Z,100123.25
2023-05-09T05:30:42.482Z,100122.44
2023-05-09T05:31:44.078Z,100124.78
2023-05-09T05:32:45.675Z,100119.34
2023-05-09T05:33:49.441Z,100120.25
2023-05-09T05:34:51.084Z,100118.78
2023-05-09T05:35:53.231Z,100120.72
2023-05-09T05:36:56.072Z,100117.13
2023-05-09T05:37:57.848Z,100120.88
2023-05-09T05:39:00.327Z,100109.53
2023-05-09T05:40:02.086Z,100118.44
2023-05-09T05:41:04.850Z,100116.84
2023-05-09T05:42:06.492Z,100113.03
2023-05-09T05:43:08.196Z,100104.25
2023-05-09T05:44:11.896Z,100109.63
2023-05-09T05:45:13.896Z,100116.03
2023-05-09T05:46:19.358Z,100120.22
2023-05-09T05:47:21.300Z,100120.16
2023-05-09T05:48:23.406Z,100114.28
2023-05-09T05:49:25.965Z,100116.91
2023-05-09T05:50:28.317Z,100109.94
2023-05-09T05:51:30.262Z,100111.47
2023-05-09T05:52:32.468Z,100109.03
2023-05-09T05:53:35.827Z,100107.81
2023-05-09T05:54:37.509Z,100106.53
2023-05-09T05:55:39.152Z,100105.44
2023-05-09T05:56:40.987Z,100107.72
2023-05-09T05:57:44.465Z,100100.59
2023-05-09T05:58:48.773Z,100112.00
2023-05-09T05:59:52.293Z,100095.97
2023-05-09T06:00:53.964Z,100090.34
2023-05-09T06:01:55.672Z,100101.84
2023-05-09T06:02:57.396Z,100101.59
2023-05-09T06:04:08.292Z,100097.41
2023-05-09T06:05:10.963Z,100094.06
2023-05-09T06:06:12.666Z,100091.41
2023-05-09T06:07:14.518Z,100089.34
2023-05-09T06:08:16.088Z,100093.81
2023-05-09T06:09:17.619Z,100087.22
2023-05-09T06:10:19.338Z,100084.38
2023-05-09T06:11:20.929Z,100087.03
2023-05-09T06:12:22.446Z,100089.91
2023-05-09T06:13:24.107Z,100085.50
2023-05-09T06:14:31.139Z,100084.81
2023-05-09T06:15:32.899Z,100086.94
2023-05-09T06:16:34.746Z,100089.00
2023-05-09T06:17:36.377Z,100089.78
2023-05-09T06:18:38.094Z,100083.78
2023-05-09T06:19:39.609Z,100084.00
2023-05-09T06:20:41.119Z,100093.28
2023-05-09T06:21:42.730Z,100086.56
2023-05-09T06:22:44.652Z,100083.50
2023-05-09T06:24:51.068Z,100074.28
2023-05-09T06:25:52.604Z,100077.03
2023-05-09T06:26:54.175Z,100077.03
2023-05-09T06:27:55.756Z,100072.44
2023-05-09T06:28:57.297Z,100077.28
2023-05-09T06:29:58.788Z,100071.66
2023-05-09T06:31:00.431Z,100067.59
2023-05-09T06:32:01.981Z,100074.44
2023-05-09T06:33:03.589Z,100072.63
2023-05-09T06:34:05.371Z,100061.53
2023-05-09T06:35:07.146Z,100070.16
2023-05-09T06:36:08.857Z,100080.09
2023-05-09T06:37:10.430Z,100079.84
2023-05-09T06:38:11.933Z,100070.25
2023-05-09T06:39:13.440Z,100074.94
2023-05-09T06:40:15.049Z,100065.13
2023-05-09T06:41:16.555Z,100064.66
2023-05-09T06:42:18.084Z,100067.03
2023-05-09T06:43:19.603Z,100077.47
2023-05-09T06:44:21.124Z,100069.78
2023-05-09T06:45:22.730Z,100074.72
2023-05-09T06:46:24.430Z,100067.50
2023-05-09T06:47:26.582Z,100076.66
2023-05-09T06:48:28.172Z,100076.88
2023-05-09T06:49:29.720Z,100059.59
2023-05-09T06:50:32.890Z,100062.84
2023-05-09T06:51:34.660Z,100070.06
2023-05-09T06:52:36.317Z,100069.78
2023-05-09T06:53:38.208Z,100063.63
2023-05-09T06:54:39.721Z,100062.19
2023-05-09T06:55:41.978Z,100062.91
2023-05-09T06:56:43.627Z,100064.38
2023-05-09T06:57:45.189Z,100069.88
2023-05-09T06:58:46.983Z,100061.50
2023-05-09T06:59:48.548Z,100061.84
2023-05-09T07:00:50.402Z,100061.59
2023-05-09T07:01:51.990Z,100069.16
2023-05-09T07:02:53.666Z,100056.81
2023-05-09T07:03:55.224Z,100059.09
2023-05-09T07:04:56.878Z,100062.94
2023-05-09T07:05:58.434Z,100057.44
2023-05-09T07:06:59.923Z,100056.81
2023-05-09T07:08:01.518Z,100066.03
2023-05-09T07:09:03.201Z,100065.50
2023-05-09T07:10:11.285Z,100058.53
2023-05-09T07:11:13.961Z,100068.22
2023-05-09T07:12:15.486Z,100059.97
2023-05-09T07:13:18.131Z,100060.97
2023-05-09T07:14:19.673Z,100059.88
2023-05-09T07:15:36.819Z,100060.56
2023-05-09T07:16:41.835Z,100060.56
2023-05-09T07:17:43.436Z,100054.34
2023-05-09T07:18:44.978Z,100052.06
2023-05-09T07:19:46.466Z,100054.66
2023-05-09T07:20:48.023Z,100062.16
2023-05-09T07:21:49.545Z,100049.97
2023-05-09T07:22:51.148Z,100050.13
2023-05-09T07:23:52.699Z,100051.78
2023-05-09T07:24:54.262Z,100054.22
2023-05-09T07:25:57.100Z,100050.56
2023-05-09T07:26:58.718Z,100043.97
2023-05-09T07:28:00.282Z,100050.44
2023-05-09T07:29:01.985Z,100045.34
2023-05-09T07:30:04.762Z,100042.63
2023-05-09T07:31:06.312Z,100043.72
2023-05-09T07:32:08.022Z,100047.09
2023-05-09T07:33:09.737Z,100038.22
2023-05-09T07:34:11.437Z,100044.13
2023-05-09T07:35:13.479Z,100048.06
2023-05-09T07:36:15.209Z,100040.69
2023-05-09T07:37:16.772Z,100033.19
2023-05-09T07:38:18.374Z,100040.31
2023-05-09T07:39:19.942Z,100040.97
2023-05-09T07:40:21.494Z,100034.16
2023-05-09T07:41:23.014Z,100032.66
2023-05-09T07:42:24.598Z,100032.00
2023-05-09T07:43:26.074Z,100037.34
2023-05-09T07:44:27.684Z,100032.00
2023-05-09T07:45:29.231Z,100034.94
2023-05-09T07:46:30.830Z,100040.94
2023-05-09T07:47:33.049Z,100030.50
2023-05-09T07:48:34.646Z,100029.75
2023-05-09T07:49:36.241Z,100026.16
2023-05-09T07:50:37.786Z,100023.94
2023-05-09T07:51:39.297Z,100015.78
2023-05-09T07:52:40.787Z,100016.34
2023-05-09T07:53:42.304Z,100021.06
2023-05-09T07:54:44.835Z,100021.91
2023-05-09T07:55:46.393Z,100017.59
2023-05-09T07:56:48.063Z,100017.91
2023-05-09T07:57:49.569Z,100021.09
2023-05-09T07:58:51.611Z,100011.22
2023-05-09T07:59:54.269Z,100018.19
2023-05-09T08:00:56.848Z,100013.28
2023-05-09T08:01:58.422Z,100014.31
2023-05-09T08:03:00.195Z,100010.94
2023-05-09T08:04:01.918Z,100015.97
2023-05-09T08:05:03.626Z,100012.50
2023-05-09T08:06:05.204Z,100001.91
2023-05-09T08:07:06.901Z,100011.00
2023-05-09T08:08:08.469Z,100016.16
2023-05-09T08:09:10.010Z,100010.88
2023-05-09T08:10:11.778Z,100002.94
2023-05-09T08:11:13.358Z,100001.97
2023-05-09T08:12:14.888Z,99996.16
2023-05-09T08:13:16.481Z,99996.00
2023-05-09T08:14:18.115Z,99993.91
2023-05-09T08:15:19.610Z,99998.63
2023-05-09T08:16:21.179Z,99991.56
2023-05-09T08:17:22.809Z,99998.91
2023-05-09T08:18:24.354Z,99995.84
2023-05-09T08:19:26.038Z,99993.50
2023-05-09T08:20:27.754Z,99990.56
2023-05-09T08:21:29.261Z,99991.97
2023-05-09T08:22:30.804Z,99994.34
2023-05-09T08:23:32.458Z,99993.78
2023-05-09T08:24:33.970Z,99994.88
2023-05-09T08:25:35.493Z,99989.88
2023-05-09T08:26:37.068Z,99981.91
2023-05-09T08:27:38.565Z,99982.91
2023-05-09T08:28:40.087Z,99980.94
2023-05-09T08:29:42.628Z,99994.34
2023-05-09T08:30:44.136Z,99983.19
2023-05-09T08:31:45.708Z,99988.63
2023-05-09T08:32:47.360Z,99988.63
2023-05-09T08:33:48.906Z,99991.69
2023-05-09T08:34:50.625Z,99986.22
2023-05-09T08:35:53.307Z,99985.69
2023-05-09T08:36:54.986Z,99981.53
2023-05-09T08:37:56.486Z,99990.03
2023-05-09T08:38:57.976Z,99983.03
2023-05-09T08:39:59.500Z,99991.66
2023-05-09T08:41:01.698Z,99993.16
2023-05-09T08:42:03.376Z,99985.47
2023-05-09T08:43:07.005Z,99992.44
2023-05-09T08:44:08.737Z,99989.50
2023-05-09T08:45:11.773Z,99998.41
2023-05-09T08:46:15.660Z,99997.31
2023-05-09T08:47:17.883Z,99990.59
2023-05-09T08:48:20.859Z,99989.91
2023-05-09T08:49:23.228Z,99982.88
2023-05-09T08:50:24.959Z,99989.50
2023-05-09T08:51:27.045Z,99993.25
2023-05-09T08:52:31.223Z,99981.34
2023-05-09T08:53:33.326Z,99984.38
2023-05-09T08:54:35.211Z,99987.31
2023-05-09T08:55:37.138Z,99985.22
2023-05-09T08:56:38.940Z,99984.72
2023-05-09T08:57:40.713Z,99981.09
2023-05-09T08:58:42.486Z,99984.66
2023-05-09T08:59:44.161Z,99988.19
2023-05-09T09:00:47.062Z,99979.03
2023-05-09T09:01:48.689Z,99983.22
2023-05-09T09:02:50.864Z,99980.56
2023-05-09T09:03:52.456Z,99979.91
2023-05-09T09:04:54.557Z,99983.19
2023-05-09T09:05:57.966Z,99972.81
2023-05-09T09:07:00.967Z,99975.25
2023-05-09T09:08:03.668Z,99979.81
2023-05-09T09:09:06.962Z,99970.19
2023-05-09T09:10:10.688Z,99970.63
2023-05-09T09:11:14.831Z,99975.41
2023-05-09T09:12:17.485Z,99971.13
2023-05-09T09:13:20.831Z,99974.94
2023-05-09T09:14:26.300Z,99971.28
2023-05-09T09:15:30.317Z,99974.28
2023-05-09T09:16:33.144Z,99968.56
2023-05-09T09:17:38.955Z,99976.78
2023-05-09T09:18:40.519Z,99964.19
2023-05-09T09:19:44.228Z,99972.94
2023-05-09T09:20:49.833Z,99977.56
2023-05-09T09:21:53.645Z,99968.34
2023-05-09T09:22:59.996Z,99979.31
2023-05-09T09:24:02.966Z,99971.66
2023-05-09T09:25:04.736Z,99963.75
2023-05-09T09:26:06.282Z,99957.09
2023-05-09T09:27:07.965Z,99970.00
2023-05-09T09:28:10.809Z,99962.84
2023-05-09T09:29:13.019Z,99969.97
2023-05-09T09:30:15.244Z,99970.19
2023-05-09T09:31:26.677Z,99960.34
2023-05-09T09:32:34.594Z,99958.63
2023-05-09T09:33:36.218Z,99962.41
2023-05-09T09:34:37.813Z,99959.22
2023-05-09T09:35:39.591Z,99959.06
2023-05-09T09:36:41.133Z,99963.09
2023-05-09T09:37:43.131Z,99963.72
2023-05-09T09:38:44.643Z,99961.34
2023-05-09T09:39:56.039Z,99956.19
2023-05-09T09:40:58.769Z,99965.28
2023-05-09T09:42:10.742Z,99959.00
2023-05-09T09:43:12.236Z,99952.78
2023-05-09T09:44:19.274Z,99959.75
2023-05-09T09:45:20.858Z,99953.63
2023-05-09T09:46:22.401Z,99950.44
2023-05-09T09:47:33.494Z,99952.19
2023-05-09T09:48:36.074Z,99956.78
2023-05-09T09:49:38.093Z,99958.09
2023-05-09T09:50:39.652Z,99953.00
2023-05-09T09:51:42.113Z,99959.16
2023-05-09T09:52:49.694Z,99956.25
2023-05-09T09:53:51.197Z,99952.13
2023-05-09T09:54:55.452Z,99959.09
2023-05-09T09:55:57.110Z,99955.16
2023-05-09T09:56:58.651Z,99953.63
2023-05-09T09:58:00.218Z,99954.53
2023-05-09T09:59:18.022Z,99956.78
2023-05-09T10:00:26.002Z,99961.81
2023-05-09T10:01:27.585Z,99945.22
2023-05-09T10:02:29.179Z,99949.25
2023-05-09T10:03:41.590Z,99955.53
2023-05-09T10:04:43.954Z,99947.53
2023-05-09T10:05:45.561Z,99953.44
2023-05-09T10:06:58.883Z,99946.69
2023-05-09T10:08:04.554Z,99947.22
2023-05-09T10:09:06.078Z,99944.00
2023-05-09T10:10:08.376Z,99944.59
2023-05-09T10:11:10.038Z,99946.53
2023-05-09T10:12:12.280Z,99939.72
2023-05-09T10:13:14.080Z,99937.94
2023-05-09T10:14:16.735Z,99942.38
2023-05-09T10:15:19.111Z,99933.31
2023-05-09T10:16:28.528Z,99938.81
2023-05-09T10:17:33.904Z,99932.13
2023-05-09T10:18:36.157Z,99927.31
2023-05-09T10:19:39.874Z,99930.34
2023-05-09T10:20:43.770Z,99928.31
2023-05-09T10:21:52.924Z,99928.50
2023-05-09T10:22:56.766Z,99921.25
2023-05-09T10:23:59.437Z,99928.81
2023-05-09T10:25:10.045Z,99924.84
2023-05-09T10:26:16.880Z,99925.16
2023-05-09T10:27:22.371Z,99925.78
2023-05-09T10:28:31.150Z,99918.44
2023-05-09T10:29:39.264Z,99914.00
2023-05-09T10:30:55.394Z,99909.56
2023-05-09T10:31:59.839Z,99914.88
2023-05-09T10:33:04.282Z,99911.00
2023-05-09T10:34:10.254Z,99911.88
2023-05-09T10:35:13.482Z,99908.03
2023-05-09T10:36:18.144Z,99911.25
2023-05-09T10:37:21.584Z,99910.06
2023-05-09T10:38:23.584Z,99907.47
2023-05-09T10:39:25.333Z,99914.97
2023-05-09T10:40:27.867Z,99921.81
2023-05-09T10:41:29.421Z,99904.81
2023-05-09T10:42:31.838Z,99911.53
2023-05-09T10:43:34.775Z,99911.78
2023-05-09T10:44:38.688Z,99908.19
2023-05-09T10:45:41.688Z,99897.63
2023-05-09T10:46:44.815Z,99900.44
2023-05-09T10:47:48.617Z,99904.28
2023-05-09T10:48:50.758Z,99904.16
2023-05-09T10:49:52.929Z,99903.22
2023-05-09T10:50:55.382Z,99900.34
2023-05-09T10:51:56.912Z,99901.38
2023-05-09T10:53:05.241Z,99903.22
2023-05-09T10:54:27.609Z,99898.28
2023-05-09T10:55:55.894Z,99900.47
2023-05-09T10:56:57.682Z,99900.16
2023-05-09T10:58:18.346Z,99893.84
2023-05-09T10:59:40.061Z,99897.00
2023-05-09T11:00:42.279Z,99891.19
2023-05-09T11:01:43.835Z,99894.81
2023-05-09T11:03:08.447Z,99896.00
2023-05-09T11:04:11.676Z,99891.53
2023-05-09T11:05:18.236Z,99885.41
2023-05-09T11:06:41.712Z,99879.13
2023-05-09T11:07:43.455Z,99881.63
2023-05-09T11:08:45.010Z,99884.44
2023-05-09T11:09:51.837Z,99883.78
2023-05-09T11:11:22.994Z,99884.75
2023-05-09T11:12:25.124Z,99891.53
2023-05-09T11:13:32.000Z,99881.19
2023-05-09T11:14:39.745Z,99877.50
2023-05-09T11:16:11.757Z,99875.41
2023-05-09T11:17:22.828Z,99869.63
2023-05-09T11:18:24.612Z,99866.78
2023-05-09T11:19:52.167Z,99869.28
2023-05-09T11:20:54.196Z,99867.28
2023-05-09T11:22:02.445Z,99866.56
2023-05-09T11:23:04.967Z,99867.13
2023-05-09T11:24:16.875Z,99863.13
2023-05-09T11:25:25.697Z,99868.97
2023-05-09T11:26:29.115Z,99869.28
2023-05-09T11:27:38.883Z,99856.78
2023-05-09T11:28:40.435Z,99860.25
2023-05-09T11:29:50.072Z,99853.78
2023-05-09T11:30:51.690Z,99861.13
2023-05-09T11:32:06.936Z,99857.81
2023-05-09T11:33:27.287Z,99853.16
2023-05-09T11:34:29.666Z,99852.63
2023-05-09T11:35:31.335Z,99853.94
2023-05-09T11:36:32.931Z,99852.84
2023-05-09T11:37:44.133Z,99850.69
2023-05-09T11:38:47.229Z,99857.84
2023-05-09T11:39:56.382Z,99846.41
2023-05-09T11:40:59.183Z,99844.94
2023-05-09T11:42:00.798Z,99839.47
2023-05-09T11:43:02.558Z,99852.16
2023-05-09T11:44:04.161Z,99844.66
2023-05-09T11:45:06.701Z,99842.38
2023-05-09T11:46:08.408Z,99843.34
2023-05-09T11:47:09.938Z,99839.22
2023-05-09T11:48:11.525Z,99840.53
2023-05-09T11:49:14.050Z,99831.38
2023-05-09T11:50:17.609Z,99836.53
2023-05-09T11:51:19.478Z,99835.06
2023-05-09T11:52:21.981Z,99834.56
2023-05-09T11:53:24.726Z,99832.56
2023-05-09T11:54:26.250Z,99831.56
2023-05-09T11:55:27.769Z,99830.56
2023-05-09T11:56:30.719Z,99818.94
2023-05-09T11:57:32.413Z,99823.13
2023-05-09T11:58:38.512Z,99821.28
2023-05-09T11:59:40.137Z,99826.59
2023-05-09T12:00:45.755Z,99833.06
2023-05-09T12:01:48.350Z,99829.75
2023-05-09T12:02:50.733Z,99817.13
2023-05-09T12:03:52.582Z,99824.44
2023-05-09T12:04:54.250Z,99817.59
2023-05-09T12:05:55.881Z,99810.44
2023-05-09T12:07:00.867Z,99819.13
2023-05-09T12:08:03.313Z,99812.66
2023-05-09T12:09:04.874Z,99805.31
2023-05-09T12:10:07.564Z,99809.44
2023-05-09T12:11:09.616Z,99809.59
2023-05-09T12:12:12.861Z,99806.78